createdAt,value
2023-05-21T00:00:58.712Z,21.69
2023-05-21T00:01:58.753Z,21.70
2023-05-21T00:02:57.955Z,21.68
2023-05-21T00:03:59.009Z,21.69
2023-05-21T00:04:58.931Z,21.69
2023-05-21T00:05:57.807Z,21.68
2023-05-21T00:06:57.873Z,21.69
2023-05-21T00:07:57.802Z,21.66
2023-05-21T00:08:57.782Z,21.68
2023-05-21T00:09:58.901Z,21.68
2023-05-21T00:10:59.065Z,21.68
2023-05-21T00:11:57.906Z,21.69
2023-05-21T00:12:58.864Z,21.66
2023-05-21T00:13:57.940Z,21.69
2023-05-21T00:14:58.990Z,21.66
2023-05-21T00:15:58.072Z,21.66
2023-05-21T00:16:57.897Z,21.66
2023-05-21T00:17:57.990Z,21.68
2023-05-21T00:18:58.324Z,21.66
2023-05-21T00:19:58.118Z,21.68
2023-05-21T00:20:57.971Z,21.65
2023-05-21T00:21:58.991Z,21.68
2023-05-21T00:22:59.204Z,21.68
2023-05-21T00:23:58.984Z,21.66
2023-05-21T00:24:59.113Z,21.68
2023-05-21T00:25:58.192Z,21.65
2023-05-21T00:26:59.240Z,21.66
2023-05-21T00:27:59.029Z,21.66
2023-05-21T00:28:59.248Z,21.63
2023-05-21T00:29:59.191Z,21.65
2023-05-21T00:30:58.077Z,21.63
2023-05-21T00:31:58.189Z,21.65
2023-05-21T00:32:59.266Z,21.66
2023-05-21T00:33:58.251Z,21.63
2023-05-21T00:34:58.198Z,21.63
2023-05-21T00:35:58.180Z,21.63
2023-05-21T00:36:58.182Z,21.65
2023-05-21T00:37:59.384Z,21.65
2023-05-21T00:38:59.165Z,21.66
2023-05-21T00:39:58.595Z,21.63
2023-05-21T00:40:58.194Z,21.63
2023-05-21T00:41:58.189Z,21.63
2023-05-21T00:42:59.275Z,21.63
2023-05-21T00:43:58.431Z,21.65
2023-05-21T00:44:59.343Z,21.62
2023-05-21T00:45:58.436Z,21.63
2023-05-21T00:46:58.562Z,21.63
2023-05-21T00:47:58.371Z,21.65
2023-05-21T00:48:58.446Z,21.63
2023-05-21T00:49:58.328Z,21.62
2023-05-21T00:50:58.327Z,21.62
2023-05-21T00:51:58.335Z,21.62
2023-05-21T00:52:59.375Z,21.62
2023-05-21T00:53:58.515Z,21.63
2023-05-21T00:54:59.379Z,21.65
2023-05-21T00:55:59.469Z,21.63
2023-05-21T00:56:59.418Z,21.62
2023-05-21T00:57:58.661Z,21.62
2023-05-21T00:58:59.573Z,21.63
2023-05-21T00:59:58.653Z,21.62
2023-05-21T01:00:59.622Z,21.62
2023-05-21T01:01:58.677Z,21.61
2023-05-21T01:02:59.592Z,21.62
2023-05-21T01:03:58.527Z,21.61
2023-05-21T01:04:59.511Z,21.59
2023-05-21T01:05:58.743Z,21.62
2023-05-21T01:06:58.582Z,21.65
2023-05-21T01:07:59.704Z,21.59
2023-05-21T01:08:59.593Z,21.63
2023-05-21T01:09:58.595Z,21.58
2023-05-21T01:10:59.666Z,21.62
2023-05-21T01:11:58.638Z,21.61
2023-05-21T01:12:58.717Z,21.61
2023-05-21T01:13:58.732Z,21.61
2023-05-21T01:14:59.710Z,21.61
2023-05-21T01:15:58.944Z,21.62
2023-05-21T01:16:59.932Z,21.63
2023-05-21T01:17:58.970Z,21.61
2023-05-21T01:18:58.932Z,21.59
2023-05-21T01:19:59.852Z,21.59
2023-05-21T01:21:00.029Z,21.62
2023-05-21T01:21:59.045Z,21.61
2023-05-21T01:22:59.915Z,21.62
2023-05-21T01:24:00.098Z,21.59
2023-05-21T01:25:00.048Z,21.61
2023-05-21T01:25:59.080Z,21.58
2023-05-21T01:26:59.007Z,21.59
2023-05-21T01:27:59.977Z,21.58
2023-05-21T01:29:00.089Z,21.58
2023-05-21T01:29:59.055Z,21.58
2023-05-21T01:30:59.167Z,21.59
2023-05-21T01:31:59.310Z,21.58
2023-05-21T01:33:00.206Z,21.56
2023-05-21T01:34:00.192Z,21.59
2023-05-21T01:35:00.371Z,21.58
2023-05-21T01:36:00.240Z,21.59
2023-05-21T01:36:59.209Z,21.58
2023-05-21T01:38:00.210Z,21.56
2023-05-21T01:39:00.216Z,21.59
2023-05-21T01:40:00.217Z,21.56
2023-05-21T01:41:00.234Z,21.56
2023-05-21T01:42:00.262Z,21.56
2023-05-21T01:42:59.285Z,21.55
2023-05-21T01:44:00.360Z,21.56
2023-05-21T01:45:00.494Z,21.56
2023-05-21T01:45:59.433Z,21.58
2023-05-21T01:46:59.526Z,21.58
2023-05-21T01:48:00.493Z,21.56
2023-05-21T01:48:59.455Z,21.56
2023-05-21T01:49:59.442Z,21.55
2023-05-21T01:51:00.503Z,21.55
2023-05-21T01:51:59.477Z,21.56
2023-05-21T01:52:59.476Z,21.56
2023-05-21T01:54:00.523Z,21.58
2023-05-21T01:55:00.690Z,21.58
2023-05-21T01:55:59.797Z,21.56
2023-05-21T01:56:59.858Z,21.55
2023-05-21T01:58:02.211Z,21.56
2023-05-21T01:58:59.725Z,21.58
2023-05-21T02:00:00.669Z,21.55
2023-05-21T02:00:59.617Z,21.58
2023-05-21T02:02:00.796Z,21.55
2023-05-21T02:02:59.809Z,21.55
2023-05-21T02:03:59.798Z,21.56
2023-05-21T02:04:59.553Z,21.53
2023-05-21T02:06:00.538Z,21.53
2023-05-21T02:07:00.537Z,21.53
2023-05-21T02:08:00.514Z,21.53
2023-05-21T02:09:00.561Z,21.53
2023-05-21T02:09:59.622Z,21.53
2023-05-21T02:11:00.709Z,21.53
2023-05-21T02:12:00.677Z,21.52
2023-05-21T02:13:00.493Z,21.53
2023-05-21T02:14:00.492Z,21.52
2023-05-21T02:14:59.515Z,21.51
2023-05-21T02:16:00.506Z,21.55
2023-05-21T02:16:59.596Z,21.55
2023-05-21T02:17:59.565Z,21.52
2023-05-21T02:18:59.495Z,21.52
2023-05-21T02:20:00.511Z,21.52
2023-05-21T02:20:59.566Z,21.53
2023-05-21T02:22:00.484Z,21.52
2023-05-21T02:23:00.430Z,21.51
2023-05-21T02:23:59.529Z,21.52
2023-05-21T02:24:59.574Z,21.51
2023-05-21T02:26:00.468Z,21.51
2023-05-21T02:26:59.564Z,21.52
2023-05-21T02:28:00.699Z,21.51
2023-05-21T02:29:00.568Z,21.51
2023-05-21T02:29:59.492Z,21.51
2023-05-21T02:31:00.523Z,21.52
2023-05-21T02:32:00.402Z,21.49
2023-05-21T02:33:00.439Z,21.51
2023-05-21T02:33:59.416Z,21.52
2023-05-21T02:34:59.389Z,21.51
2023-05-21T02:35:59.413Z,21.51
2023-05-21T02:37:00.336Z,21.51
2023-05-21T02:37:59.617Z,21.52
2023-05-21T02:38:59.450Z,21.51
2023-05-21T02:40:00.374Z,21.49
2023-05-21T02:41:00.609Z,21.48
2023-05-21T02:41:59.483Z,21.51
2023-05-21T02:42:59.494Z,21.49
2023-05-21T02:43:59.484Z,21.51
2023-05-21T02:44:59.515Z,21.48
2023-05-21T02:45:59.647Z,21.52
2023-05-21T02:46:59.673Z,21.49
2023-05-21T02:48:00.711Z,21.49
2023-05-21T02:48:59.769Z,21.48
2023-05-21T02:49:59.711Z,21.49
2023-05-21T02:50:59.798Z,21.49
2023-05-21T02:51:59.926Z,21.49
2023-05-21T02:53:00.751Z,21.51
2023-05-21T02:53:59.878Z,21.48
2023-05-21T02:55:00.852Z,21.49
2023-05-21T02:55:59.812Z,21.49
2023-05-21T02:56:59.865Z,21.48
2023-05-21T02:58:01.198Z,21.46
2023-05-21T02:59:00.138Z,21.48
2023-05-21T03:00:01.128Z,21.49
2023-05-21T03:01:00.274Z,21.48
2023-05-21T03:02:00.302Z,21.49
2023-05-21T03:03:00.289Z,21.48
2023-05-21T03:04:01.055Z,21.46
2023-05-21T03:05:01.077Z,21.46
2023-05-21T03:06:01.072Z,21.46
2023-05-21T03:07:01.271Z,21.48
2023-05-21T03:08:00.294Z,21.48
2023-05-21T03:09:01.392Z,21.48
2023-05-21T03:10:01.292Z,21.45
2023-05-21T03:11:00.300Z,21.46
2023-05-21T03:12:00.470Z,21.46
2023-05-21T03:13:01.336Z,21.45
2023-05-21T03:14:01.395Z,21.46
2023-05-21T03:15:00.361Z,21.45
2023-05-21T03:16:00.435Z,21.48
2023-05-21T03:17:00.613Z,21.46
2023-05-21T03:18:00.698Z,21.44
2023-05-21T03:19:01.544Z,21.45
2023-05-21T03:20:00.638Z,21.44
2023-05-21T03:21:00.618Z,21.45
2023-05-21T03:22:01.544Z,21.45
2023-05-21T03:23:00.738Z,21.44
2023-05-21T03:24:01.690Z,21.44
2023-05-21T03:25:01.689Z,21.44
2023-05-21T03:26:01.716Z,21.44
2023-05-21T03:27:00.719Z,21.46
2023-05-21T03:28:00.733Z,21.45
2023-05-21T03:29:00.826Z,21.45
2023-05-21T03:30:00.875Z,21.45
2023-05-21T03:31:01.779Z,21.44
2023-05-21T03:32:01.853Z,21.44
2023-05-21T03:33:02.021Z,21.46
2023-05-21T03:34:00.849Z,21.45
2023-05-21T03:35:01.884Z,21.45
2023-05-21T03:36:01.906Z,21.45
2023-05-21T03:37:00.932Z,21.42
2023-05-21T03:38:00.951Z,21.44
2023-05-21T03:39:02.008Z,21.45
2023-05-21T03:40:01.992Z,21.45
2023-05-21T03:41:02.043Z,21.42
2023-05-21T03:42:01.121Z,21.42
2023-05-21T03:43:01.156Z,21.41
2023-05-21T03:44:02.215Z,21.42
2023-05-21T03:45:02.249Z,21.40
2023-05-21T03:46:01.497Z,21.42
2023-05-21T03:47:02.424Z,21.41
2023-05-21T03:48:02.459Z,21.41
2023-05-21T03:49:01.315Z,21.45
2023-05-21T03:50:02.315Z,21.42
2023-05-21T03:51:01.372Z,21.44
2023-05-21T03:52:01.404Z,21.42
2023-05-21T03:53:01.446Z,21.41
2023-05-21T03:54:01.553Z,21.44
2023-05-21T03:55:01.491Z,21.42
2023-05-21T03:56:02.514Z,21.44
2023-05-21T03:57:02.601Z,21.40
2023-05-21T03:58:02.640Z,21.42
2023-05-21T03:59:01.615Z,21.44
2023-05-21T04:00:01.669Z,21.41
2023-05-21T04:01:02.725Z,21.41
2023-05-21T04:02:03.086Z,21.41
2023-05-21T04:03:02.976Z,21.44
2023-05-21T04:04:02.963Z,21.41
2023-05-21T04:05:01.797Z,21.41
2023-05-21T04:06:02.841Z,21.42
2023-05-21T04:07:01.970Z,21.42
2023-05-21T04:08:03.051Z,21.41
2023-05-21T04:09:02.963Z,21.42
2023-05-21T04:10:02.163Z,21.41
2023-05-21T04:11:03.040Z,21.41
2023-05-21T04:12:03.149Z,21.42
2023-05-21T04:13:02.122Z,21.38
2023-05-21T04:14:03.192Z,21.41
2023-05-21T04:15:03.248Z,21.42
2023-05-21T04:16:03.312Z,21.41
2023-05-21T04:17:03.288Z,21.40
2023-05-21T04:18:02.498Z,21.40
2023-05-21T04:19:02.344Z,21.38
2023-05-21T04:20:02.538Z,21.40
2023-05-21T04:21:02.430Z,21.40
2023-05-21T04:22:02.628Z,21.40
2023-05-21T04:23:03.462Z,21.40
2023-05-21T04:24:03.558Z,21.40
2023-05-21T04:25:03.671Z,21.40
2023-05-21T04:26:02.568Z,21.41
2023-05-21T04:27:03.707Z,21.41
2023-05-21T04:28:02.655Z,21.41
2023-05-21T04:29:03.773Z,21.41
2023-05-21T04:30:02.715Z,21.41
2023-05-21T04:31:02.969Z,21.41
2023-05-21T04:32:02.914Z,21.40
2023-05-21T04:33:04.178Z,21.40
2023-05-21T04:34:03.947Z,21.42
2023-05-21T04:35:02.969Z,21.38
2023-05-21T04:36:02.954Z,21.40
2023-05-21T04:37:04.121Z,21.42
2023-05-21T04:38:04.304Z,21.40
2023-05-21T04:39:03.057Z,21.40
2023-05-21T04:40:03.124Z,21.41
2023-05-21T04:41:04.147Z,21.40
2023-05-21T04:42:04.364Z,21.42
2023-05-21T04:43:04.516Z,21.41
2023-05-21T04:44:03.362Z,21.41
2023-05-21T04:45:04.305Z,21.40
2023-05-21T04:46:04.318Z,21.40
2023-05-21T04:47:04.412Z,21.42
2023-05-21T04:48:04.531Z,21.41
2023-05-21T04:49:03.630Z,21.40
2023-05-21T04:50:03.670Z,21.40
2023-05-21T04:51:03.583Z,21.40
2023-05-21T04:52:03.760Z,21.40
2023-05-21T04:53:03.707Z,21.40
2023-05-21T04:54:04.655Z,21.41
2023-05-21T04:55:04.785Z,21.42
2023-05-21T04:56:04.796Z,21.41
2023-05-21T04:57:03.818Z,21.42
2023-05-21T04:58:04.893Z,21.42
2023-05-21T04:59:05.444Z,21.41
2023-05-21T05:00:04.882Z,21.41
2023-05-21T05:01:05.139Z,21.41
2023-05-21T05:02:04.093Z,21.41
2023-05-21T05:03:04.088Z,21.41
2023-05-21T05:04:04.162Z,21.42
2023-05-21T05:05:04.050Z,21.44
2023-05-21T05:06:04.161Z,21.42
2023-05-21T05:07:04.119Z,21.44
2023-05-21T05:08:05.295Z,21.40
2023-05-21T05:09:04.354Z,21.44
2023-05-21T05:10:05.379Z,21.42
2023-05-21T05:11:05.449Z,21.44
2023-05-21T05:12:05.447Z,21.44
2023-05-21T05:13:05.339Z,21.41
2023-05-21T05:14:04.473Z,21.44
2023-05-21T05:15:04.412Z,21.41
2023-05-21T05:16:04.710Z,21.42
2023-05-21T05:17:05.483Z,21.41
2023-05-21T05:18:04.568Z,21.42
2023-05-21T05:19:05.716Z,21.42
2023-05-21T05:20:04.560Z,21.45
2023-05-21T05:21:05.652Z,21.45
2023-05-21T05:22:04.885Z,21.42
2023-05-21T05:23:04.689Z,21.44
2023-05-21T05:24:04.884Z,21.44
2023-05-21T05:25:04.771Z,21.44
2023-05-21T05:26:04.787Z,21.42
2023-05-21T05:27:05.833Z,21.42
2023-05-21T05:28:04.851Z,21.44
2023-05-21T05:29:05.081Z,21.44
2023-05-21T05:30:05.937Z,21.44
2023-05-21T05:31:06.152Z,21.45
2023-05-21T05:32:06.191Z,21.41
2023-05-21T05:33:06.168Z,21.45
2023-05-21T05:34:06.123Z,21.44
2023-05-21T05:35:05.215Z,21.48
2023-05-21T05:36:05.118Z,21.45
2023-05-21T05:37:05.234Z,21.45
2023-05-21T05:38:06.363Z,21.46
2023-05-21T05:39:06.215Z,21.48
2023-05-21T05:40:06.221Z,21.45
2023-05-21T05:41:05.359Z,21.45
2023-05-21T05:42:06.312Z,21.46
2023-05-21T05:43:06.296Z,21.46
2023-05-21T05:44:05.514Z,21.48
2023-05-21T05:45:06.369Z,21.49
2023-05-21T05:46:05.549Z,21.48
2023-05-21T05:47:05.623Z,21.46
2023-05-21T05:48:05.550Z,21.49
2023-05-21T05:49:05.500Z,21.48
2023-05-21T05:50:06.580Z,21.46
2023-05-21T05:51:06.593Z,21.48
2023-05-21T05:52:05.588Z,21.48
2023-05-21T05:53:05.623Z,21.48
2023-05-21T05:54:05.801Z,21.49
2023-05-21T05:55:06.750Z,21.51
2023-05-21T05:56:06.725Z,21.48
2023-05-21T05:57:06.888Z,21.49
2023-05-21T05:58:06.927Z,21.49
2023-05-21T05:59:05.834Z,21.49
2023-05-21T06:00:06.982Z,21.49
2023-05-21T06:01:06.847Z,21.49
2023-05-21T06:02:07.104Z,21.51
2023-05-21T06:03:06.043Z,21.52
2023-05-21T06:04:06.061Z,21.52
2023-05-21T06:05:07.175Z,21.49
2023-05-21T06:06:06.188Z,21.52
2023-05-21T06:07:07.098Z,21.53
2023-05-21T06:08:06.096Z,21.53
2023-05-21T06:09:06.250Z,21.52
2023-05-21T06:10:06.143Z,21.53
2023-05-21T06:11:06.093Z,21.55
2023-05-21T06:12:06.109Z,21.52
2023-05-21T06:13:06.132Z,21.58
2023-05-21T06:14:06.387Z,21.55
2023-05-21T06:15:06.210Z,21.53
2023-05-21T06:16:07.244Z,21.58
2023-05-21T06:17:07.275Z,21.56
2023-05-21T06:18:07.387Z,21.58
2023-05-21T06:19:06.378Z,21.56
2023-05-21T06:20:06.336Z,21.56
2023-05-21T06:21:06.311Z,21.58
2023-05-21T06:22:06.322Z,21.61
2023-05-21T06:23:06.482Z,21.59
2023-05-21T06:24:06.414Z,21.61
2023-05-21T06:25:07.413Z,21.61
2023-05-21T06:26:06.428Z,21.61
2023-05-21T06:27:06.521Z,21.61
2023-05-21T06:28:07.444Z,21.62
2023-05-21T06:29:07.472Z,21.62
2023-05-21T06:30:07.496Z,21.61
2023-05-21T06:31:07.505Z,21.63
2023-05-21T06:32:06.560Z,21.62
2023-05-21T06:33:07.687Z,21.63
2023-05-21T06:34:07.653Z,21.65
2023-05-21T06:35:07.552Z,21.65
2023-05-21T06:36:07.637Z,21.63
2023-05-21T06:37:06.589Z,21.65
2023-05-21T06:38:07.760Z,21.66
2023-05-21T06:39:06.767Z,21.66
2023-05-21T06:40:06.723Z,21.66
2023-05-21T06:41:08.204Z,21.68
2023-05-21T06:42:06.754Z,21.66
2023-05-21T06:43:06.789Z,21.69
2023-05-21T06:44:07.719Z,21.66
2023-05-21T06:45:07.699Z,21.69
2023-05-21T06:46:06.778Z,21.69
2023-05-21T06:47:07.945Z,21.69
2023-05-21T06:48:06.824Z,21.72
2023-05-21T06:49:07.803Z,21.72
2023-05-21T06:50:06.783Z,21.73
2023-05-21T06:51:07.908Z,21.73
2023-05-21T06:52:06.807Z,21.73
2023-05-21T06:53:07.814Z,21.75
2023-05-21T06:54:07.944Z,21.73
2023-05-21T06:55:06.885Z,21.75
2023-05-21T06:56:07.985Z,21.75
2023-05-21T06:57:06.838Z,21.78
2023-05-21T06:58:07.980Z,21.76
2023-05-21T06:59:07.887Z,21.79
2023-05-21T07:00:07.075Z,21.79
2023-05-21T07:01:07.970Z,21.78
2023-05-21T07:02:06.875Z,21.79
2023-05-21T07:03:07.128Z,21.82
2023-05-21T07:04:07.154Z,21.82
2023-05-21T07:05:06.927Z,21.85
2023-05-21T07:06:07.971Z,21.82
2023-05-21T07:07:08.011Z,21.83
2023-05-21T07:08:08.629Z,21.80
2023-05-21T07:09:07.189Z,21.83
2023-05-21T07:10:08.277Z,21.85
2023-05-21T07:11:07.338Z,21.83
2023-05-21T07:12:08.381Z,21.83
2023-05-21T07:13:07.443Z,21.86
2023-05-21T07:14:07.315Z,21.85
2023-05-21T07:15:08.251Z,21.86
2023-05-21T07:16:08.280Z,21.86
2023-05-21T07:17:07.498Z,21.87
2023-05-21T07:18:07.351Z,21.86
2023-05-21T07:19:07.438Z,21.87
2023-05-21T07:20:07.428Z,21.89
2023-05-21T07:21:07.475Z,21.90
2023-05-21T07:22:08.393Z,21.90
2023-05-21T07:23:08.415Z,21.92
2023-05-21T07:24:07.428Z,21.89
2023-05-21T07:25:08.621Z,21.90
2023-05-21T07:26:07.536Z,21.93
2023-05-21T07:27:14.525Z,21.90
2023-05-21T07:28:08.483Z,21.92
2023-05-21T07:29:07.458Z,21.93
2023-05-21T07:30:08.418Z,21.93
2023-05-21T07:31:07.502Z,21.93
2023-05-21T07:32:08.397Z,21.96
2023-05-21T07:33:07.511Z,21.92
2023-05-21T07:34:08.511Z,21.93
2023-05-21T07:35:07.356Z,21.96
2023-05-21T07:36:08.357Z,21.95
2023-05-21T07:37:08.532Z,21.96
2023-05-21T07:38:07.372Z,21.96
2023-05-21T07:39:07.354Z,21.95
2023-05-21T07:40:07.520Z,21.97
2023-05-21T07:41:07.313Z,22.00
2023-05-21T07:42:07.343Z,21.96
2023-05-21T07:43:07.427Z,21.99
2023-05-21T07:44:08.378Z,22.00
2023-05-21T07:45:07.382Z,21.97
2023-05-21T07:46:08.373Z,21.99
2023-05-21T07:47:08.480Z,22.00
2023-05-21T07:48:08.316Z,22.00
2023-05-21T07:49:07.481Z,22.03
2023-05-21T07:50:07.271Z,22.03
2023-05-21T07:51:07.312Z,22.03
2023-05-21T07:52:07.368Z,22.01
2023-05-21T07:53:08.477Z,22.03
2023-05-21T07:54:07.384Z,22.03
2023-05-21T07:55:08.245Z,22.04
2023-05-21T07:56:07.437Z,22.04
2023-05-21T07:57:08.236Z,22.01
2023-05-21T07:58:07.408Z,22.03
2023-05-21T07:59:07.240Z,22.07
2023-05-21T08:00:08.302Z,22.07
2023-05-21T08:01:08.227Z,22.07
2023-05-21T08:02:07.448Z,22.08
2023-05-21T08:03:08.380Z,22.07
2023-05-21T08:04:07.306Z,22.08
2023-05-21T08:05:08.191Z,22.10
2023-05-21T08:06:08.382Z,22.08
2023-05-21T08:07:07.140Z,22.08
2023-05-21T08:08:08.134Z,22.08
2023-05-21T08:09:08.179Z,22.08
2023-05-21T08:10:07.358Z,22.07
2023-05-21T08:11:08.127Z,22.08
2023-05-21T08:12:08.185Z,22.10
2023-05-21T08:13:07.258Z,22.11
2023-05-21T08:14:07.108Z,22.10
2023-05-21T08:15:08.368Z,22.11
2023-05-21T08:16:08.339Z,22.14
2023-05-21T08:17:08.195Z,22.11
2023-05-21T08:18:07.306Z,22.15
2023-05-21T08:19:08.237Z,22.13
2023-05-21T08:20:07.127Z,22.15
2023-05-21T08:21:07.322Z,22.14
2023-05-21T08:22:07.431Z,22.15
2023-05-21T08:23:08.133Z,22.15
2023-05-21T08:24:07.352Z,22.17
2023-05-21T08:25:08.209Z,22.15
2023-05-21T08:26:07.153Z,22.13
2023-05-21T08:27:07.231Z,22.15
2023-05-21T08:28:07.131Z,22.17
2023-05-21T08:29:07.141Z,22.18
2023-05-21T08:30:08.194Z,22.18
2023-05-21T08:31:08.147Z,22.17
2023-05-21T08:32:07.241Z,22.17
2023-05-21T08:33:07.222Z,22.18
2023-05-21T08:34:07.271Z,22.20
2023-05-21T08:35:07.169Z,22.20
2023-05-21T08:36:08.235Z,22.18
2023-05-21T08:37:08.237Z,22.18
2023-05-21T08:38:08.353Z,22.18
2023-05-21T08:39:07.311Z,22.20
2023-05-21T08:40:07.406Z,22.23
2023-05-21T08:41:07.467Z,22.21
2023-05-21T08:42:07.378Z,22.21
2023-05-21T08:43:08.387Z,22.20
2023-05-21T08:44:07.465Z,22.20
2023-05-21T08:45:07.531Z,22.18
2023-05-21T08:46:08.520Z,22.21
2023-05-21T08:47:07.432Z,22.20
2023-05-21T08:48:08.444Z,22.21
2023-05-21T08:49:08.530Z,22.24
2023-05-21T08:50:07.673Z,22.23
2023-05-21T08:51:08.592Z,22.21
2023-05-21T08:52:07.602Z,22.23
2023-05-21T08:53:16.084Z,22.23
2023-05-21T08:54:08.629Z,22.21
2023-05-21T08:55:07.824Z,22.24
2023-05-21T08:56:08.716Z,22.25
2023-05-21T08:57:08.679Z,22.25
2023-05-21T08:58:07.699Z,22.25
2023-05-21T08:59:07.831Z,22.25
2023-05-21T09:00:07.667Z,22.25
2023-05-21T09:01:08.692Z,22.25
2023-05-21T09:02:07.776Z,22.27
2023-05-21T09:03:07.857Z,22.25
2023-05-21T09:04:19.665Z,22.27
2023-05-21T09:05:08.673Z,22.28
2023-05-21T09:06:07.811Z,22.27
2023-05-21T09:07:08.717Z,22.28
2023-05-21T09:08:08.564Z,22.27
2023-05-21T09:09:08.622Z,22.27
2023-05-21T09:10:07.534Z,22.30
2023-05-21T09:11:08.648Z,22.30
2023-05-21T09:12:07.521Z,22.28
2023-05-21T09:13:08.685Z,22.28
2023-05-21T09:14:07.608Z,22.30
2023-05-21T09:15:07.685Z,22.32
2023-05-21T09:16:08.882Z,22.31
2023-05-21T09:17:08.793Z,22.31
2023-05-21T09:18:07.829Z,22.32
2023-05-21T09:19:08.926Z,22.30
2023-05-21T09:20:07.938Z,22.32
2023-05-21T09:21:08.078Z,22.32
2023-05-21T09:22:09.090Z,22.31
2023-05-21T09:23:09.127Z,22.32
2023-05-21T09:24:09.176Z,22.31
2023-05-21T09:25:09.252Z,22.31
2023-05-21T09:26:09.455Z,22.32
2023-05-21T09:27:08.363Z,22.34
2023-05-21T09:28:08.527Z,22.34
2023-05-21T09:29:08.676Z,22.34
2023-05-21T09:30:08.829Z,22.31
2023-05-21T09:31:08.832Z,22.34
2023-05-21T09:32:09.772Z,22.37
2023-05-21T09:33:08.965Z,22.35
2023-05-21T09:34:09.785Z,22.35
2023-05-21T09:35:08.973Z,22.32
2023-05-21T09:36:08.877Z,22.34
2023-05-21T09:37:19.918Z,22.37
2023-05-21T09:38:09.975Z,22.35
2023-05-21T09:39:08.931Z,22.35
2023-05-21T09:40:08.979Z,22.37
2023-05-21T09:41:08.916Z,22.40
2023-05-21T09:42:09.021Z,22.35
2023-05-21T09:43:09.950Z,22.38
2023-05-21T09:44:08.873Z,22.37
2023-05-21T09:45:09.935Z,22.40
2023-05-21T09:46:10.026Z,22.40
2023-05-21T09:47:09.068Z,22.38
2023-05-21T09:48:10.220Z,22.37
2023-05-21T09:49:10.197Z,22.38
2023-05-21T09:50:10.258Z,22.41
2023-05-21T09:51:09.334Z,22.38
2023-05-21T09:52:09.418Z,22.40
2023-05-21T09:53:10.475Z,22.41
2023-05-21T09:54:09.601Z,22.40
2023-05-21T09:55:09.576Z,22.41
2023-05-21T09:56:10.751Z,22.40
2023-05-21T09:57:10.842Z,22.41
2023-05-21T09:58:09.772Z,22.40
2023-05-21T09:59:09.783Z,22.42
2023-05-21T10:00:09.969Z,22.42
2023-05-21T10:01:10.919Z,22.45
2023-05-21T10:02:10.192Z,22.42
2023-05-21T10:03:10.105Z,22.45
2023-05-21T10:04:10.388Z,22.42
2023-05-21T10:05:10.305Z,22.45
2023-05-21T10:06:11.246Z,22.42
2023-05-21T10:07:11.326Z,22.47
2023-05-21T10:08:10.355Z,22.45
2023-05-21T10:09:11.427Z,22.44
2023-05-21T10:10:10.488Z,22.44
2023-05-21T10:11:11.523Z,22.47
2023-05-21T10:12:10.601Z,22.44
2023-05-21T10:13:11.653Z,22.44
2023-05-21T10:14:10.802Z,22.47
2023-05-21T10:15:11.776Z,22.47
2023-05-21T10:16:10.842Z,22.47
2023-05-21T10:17:11.963Z,22.47
2023-05-21T10:18:12.096Z,22.48
2023-05-21T10:19:12.028Z,22.48
2023-05-21T10:20:11.146Z,22.48
2023-05-21T10:21:12.150Z,22.47
2023-05-21T10:22:11.236Z,22.49
2023-05-21T10:23:12.207Z,22.48
2023-05-21T10:24:12.272Z,22.49
2023-05-21T10:25:12.295Z,22.49
2023-05-21T10:26:11.354Z,22.51
2023-05-21T10:27:11.472Z,22.52
2023-05-21T10:28:12.440Z,22.49
2023-05-21T10:29:11.565Z,22.49
2023-05-21T10:30:12.653Z,22.49
2023-05-21T10:31:12.715Z,22.51
2023-05-21T10:32:11.785Z,22.52
2023-05-21T10:33:12.716Z,22.51
2023-05-21T10:34:11.916Z,22.52
2023-05-21T10:35:12.902Z,22.51
2023-05-21T10:36:12.885Z,22.52
2023-05-21T10:37:12.950Z,22.54
2023-05-21T10:38:13.080Z,22.51
2023-05-21T10:39:13.253Z,22.56
2023-05-21T10:40:12.073Z,22.54
2023-05-21T10:41:12.139Z,22.54
2023-05-21T10:42:12.173Z,22.52
2023-05-21T10:43:12.205Z,22.51
2023-05-21T10:44:12.235Z,22.54
2023-05-21T10:45:13.408Z,22.54
2023-05-21T10:46:13.507Z,22.54
2023-05-21T10:47:13.574Z,22.56
2023-05-21T10:48:13.545Z,22.52
2023-05-21T10:49:12.485Z,22.52
2023-05-21T10:50:13.795Z,22.52
2023-05-21T10:51:12.610Z,22.54
2023-05-21T10:52:12.759Z,22.52
2023-05-21T10:53:12.826Z,22.54
2023-05-21T10:54:12.833Z,22.54
2023-05-21T10:55:13.919Z,22.55
2023-05-21T10:56:13.848Z,22.54
2023-05-21T10:57:13.905Z,22.54
2023-05-21T10:58:13.160Z,22.54
2023-05-21T10:59:13.178Z,22.54
2023-05-21T11:00:14.345Z,22.54
2023-05-21T11:01:13.317Z,22.55
2023-05-21T11:02:14.190Z,22.54
2023-05-21T11:03:14.365Z,22.58
2023-05-21T11:04:13.315Z,22.58
2023-05-21T11:05:13.322Z,22.54
2023-05-21T11:06:13.444Z,22.55
2023-05-21T11:07:13.497Z,22.56
2023-05-21T11:08:14.470Z,22.55
2023-05-21T11:09:13.585Z,22.58
2023-05-21T11:10:13.675Z,22.56
2023-05-21T11:11:13.658Z,22.54
2023-05-21T11:12:13.720Z,22.55
2023-05-21T11:13:13.773Z,22.55
2023-05-21T11:14:13.793Z,22.55
2023-05-21T11:15:13.813Z,22.55
2023-05-21T11:16:13.880Z,22.55
2023-05-21T11:17:14.094Z,22.56
2023-05-21T11:18:15.019Z,22.55
2023-05-21T11:19:15.035Z,22.56
2023-05-21T11:20:15.162Z,22.55
2023-05-21T11:21:14.132Z,22.55
2023-05-21T11:22:15.224Z,22.54
2023-05-21T11:23:14.250Z,22.56
2023-05-21T11:24:15.308Z,22.56
2023-05-21T11:25:14.372Z,22.56
2023-05-21T11:26:15.474Z,22.56
2023-05-21T11:27:15.456Z,22.58
2023-05-21T11:28:15.525Z,22.59
2023-05-21T11:29:14.602Z,22.56
2023-05-21T11:30:14.698Z,22.58
2023-05-21T11:31:14.713Z,22.59
2023-05-21T11:32:15.872Z,22.56
2023-05-21T11:33:14.905Z,22.58
2023-05-21T11:34:14.834Z,22.60
2023-05-21T11:35:15.029Z,22.60
2023-05-21T11:36:14.994Z,22.56
2023-05-21T11:37:15.085Z,22.59
2023-05-21T11:38:15.169Z,22.59
2023-05-21T11:39:16.220Z,22.60
2023-05-21T11:40:16.304Z,22.63
2023-05-21T11:41:16.164Z,22.59
2023-05-21T11:42:15.429Z,22.59
2023-05-21T11:43:15.465Z,22.59
2023-05-21T11:44:16.332Z,22.62
2023-05-21T11:45:16.368Z,22.60
2023-05-21T11:46:15.464Z,22.60
2023-05-21T11:47:16.403Z,22.59
2023-05-21T11:48:16.452Z,22.60
2023-05-21T11:49:15.529Z,22.60
2023-05-21T11:50:16.773Z,22.60
2023-05-21T11:51:15.577Z,22.60
2023-05-21T11:52:16.669Z,22.63
2023-05-21T11:53:15.664Z,22.60
2023-05-21T11:54:15.699Z,22.62
2023-05-21T11:55:16.781Z,22.59
2023-05-21T11:56:15.860Z,22.59
2023-05-21T11:57:16.024Z,22.62
2023-05-21T11:58:17.013Z,22.60
2023-05-21T11:59:18.766Z,22.63
2023-05-21T12:00:15.926Z,22.62
2023-05-21T12:01:17.072Z,22.62
2023-05-21T12:02:16.020Z,22.63
2023-05-21T12:03:16.058Z,22.62
2023-05-21T12:04:15.905Z,22.60
2023-05-21T12:05:15.962Z,22.60
2023-05-21T12:06:16.948Z,22.62
2023-05-21T12:07:15.900Z,22.62
2023-05-21T12:08:16.875Z,22.60
2023-05-21T12:09:16.873Z,22.63
2023-05-21T12:10:16.958Z,22.62
2023-05-21T12:11:17.027Z,22.60
2023-05-21T12:12:16.071Z,22.60
2023-05-21T12:13:16.853Z,22.62
2023-05-21T12:14:16.861Z,22.65
2023-05-21T12:15:16.830Z,22.62
2023-05-21T12:16:15.964Z,22.59
2023-05-21T12:17:15.826Z,22.62
2023-05-21T12:18:16.842Z,22.62
2023-05-21T12:19:16.931Z,22.62
2023-05-21T12:20:15.833Z,22.60
2023-05-21T12:21:16.866Z,22.60
2023-05-21T12:22:15.888Z,22.60
2023-05-21T12:23:16.907Z,22.65
2023-05-21T12:24:15.817Z,22.60
2023-05-21T12:25:15.803Z,22.62
2023-05-21T12:26:16.982Z,22.63
2023-05-21T12:27:17.011Z,22.65
2023-05-21T12:28:17.097Z,22.62
2023-05-21T12:29:15.900Z,22.63
2023-05-21T12:30:17.067Z,22.62
2023-05-21T12:31:17.095Z,22.63
2023-05-21T12:32:16.151Z,22.62
2023-05-21T12:33:16.213Z,22.65
2023-05-21T12:34:16.150Z,22.62
2023-05-21T12:35:16.278Z,22.63
2023-05-21T12:36:16.294Z,22.65
2023-05-21T12:37:17.338Z,22.62
2023-05-21T12:38:16.325Z,22.62
2023-05-21T12:39:16.529Z,22.63
2023-05-21T12:40:16.578Z,22.60
2023-05-21T12:41:16.703Z,22.62
2023-05-21T12:42:17.547Z,22.63
2023-05-21T12:43:17.664Z,22.60
2023-05-21T12:44:17.634Z,22.65
2023-05-21T12:45:16.640Z,22.63
2023-05-21T12:46:17.890Z,22.62
2023-05-21T12:47:16.741Z,22.63
2023-05-21T12:48:17.895Z,22.63
2023-05-21T12:49:16.930Z,22.63
2023-05-21T12:50:18.029Z,22.65
2023-05-21T12:51:16.936Z,22.62
2023-05-21T12:52:17.162Z,22.62
2023-05-21T12:53:18.034Z,22.66